createdAt,value
2018-07-25T00:01:21.521Z,22.50
2018-07-25T00:03:50.602Z,22.50
2018-07-25T00:06:19.693Z,22.50
2018-07-25T00:08:48.690Z,22.50
2018-07-25T00:11:17.679Z,22.50
2018-07-25T00:13:46.662Z,22.40
2018-07-25T00:16:15.656Z,22.40
2018-07-25T00:18:44.659Z,22.40
2018-07-25T00:21:13.671Z,22.40
2018-07-25T00:23:42.635Z,22.40
2018-07-25T00:26:11.626Z,22.30
2018-07-25T00:28:40.635Z,22.30
2018-07-25T00:31:09.624Z,22.30
2018-07-25T00:33:38.594Z,22.20
2018-07-25T00:36:07.652Z,22.20
2018-07-25T00:38:36.622Z,22.20
2018-07-25T00:41:05.637Z,22.10
2018-07-25T00:43:34.614Z,22.10
2018-07-25T00:46:03.685Z,22.10
2018-07-25T00:48:32.652Z,22.10
2018-07-25T00:51:01.664Z,22.20
2018-07-25T00:53:30.643Z,22.00
2018-07-25T00:55:59.625Z,22.00
2018-07-25T00:58:28.575Z,22.00
2018-07-25T01:00:57.568Z,22.00
2018-07-25T01:03:26.545Z,22.00
2018-07-25T01:05:55.523Z,21.80
2018-07-25T01:08:24.522Z,21.70
2018-07-25T01:10:53.532Z,21.70
2018-07-25T01:13:23.430Z,21.70
2018-07-25T01:15:52.423Z,21.80
2018-07-25T01:18:21.834Z,21.50
2018-07-25T01:20:50.819Z,21.40
2018-07-25T01:23:19.772Z,21.50
2018-07-25T01:25:48.761Z,21.50
2018-07-25T01:28:17.746Z,21.50
2018-07-25T01:30:46.755Z,21.50
2018-07-25T01:33:15.756Z,21.50
2018-07-25T01:35:44.755Z,21.60
2018-07-25T01:38:13.728Z,21.40
2018-07-25T01:40:42.895Z,21.20
2018-07-25T01:43:11.889Z,21.00
2018-07-25T01:45:40.964Z,21.00
2018-07-25T01:48:09.957Z,21.00
2018-07-25T01:50:38.975Z,21.10
2018-07-25T01:53:07.946Z,21.00
2018-07-25T01:55:36.909Z,21.10
2018-07-25T01:58:06.056Z,21.20
2018-07-25T02:00:35.067Z,21.20
2018-07-25T02:03:04.125Z,21.10
2018-07-25T02:05:33.116Z,21.10
2018-07-25T02:08:02.071Z,21.10
2018-07-25T02:10:31.097Z,21.20
2018-07-25T02:13:00.083Z,21.10
2018-07-25T02:15:29.070Z,20.90
2018-07-25T02:17:58.070Z,20.90
2018-07-25T02:20:28.337Z,20.90
2018-07-25T02:22:57.309Z,20.80
2018-07-25T02:25:26.302Z,20.70
2018-07-25T02:27:56.081Z,20.70
2018-07-25T02:30:25.189Z,20.70
2018-07-25T02:32:54.211Z,20.70
2018-07-25T02:35:23.223Z,20.60
2018-07-25T02:37:52.285Z,20.60
2018-07-25T02:40:21.271Z,20.70
2018-07-25T02:42:50.268Z,20.80
2018-07-25T02:45:19.248Z,20.80
2018-07-25T02:47:48.250Z,20.70
2018-07-25T02:50:17.211Z,20.60
2018-07-25T02:52:46.214Z,20.60
2018-07-25T02:55:15.190Z,20.60
2018-07-25T02:57:44.177Z,20.60
2018-07-25T03:00:13.140Z,20.50
2018-07-25T03:02:43.939Z,20.40
2018-07-25T03:05:13.342Z,20.40
2018-07-25T03:07:42.341Z,20.40
2018-07-25T03:10:11.332Z,20.40
2018-07-25T03:12:40.309Z,20.50
2018-07-25T03:15:09.295Z,20.60
2018-07-25T03:17:38.291Z,20.60
2018-07-25T03:20:07.298Z,20.60
2018-07-25T03:22:36.318Z,20.60
2018-07-25T03:25:05.629Z,20.60
2018-07-25T03:27:34.623Z,20.60
2018-07-25T03:30:03.629Z,20.40
2018-07-25T03:32:32.627Z,20.40
2018-07-25T03:35:01.606Z,20.40
2018-07-25T03:37:30.638Z,20.40
2018-07-25T03:39:59.582Z,20.40
2018-07-25T03:42:28.545Z,20.50
2018-07-25T03:44:57.523Z,20.40
2018-07-25T03:47:26.529Z,20.50
2018-07-25T03:49:55.498Z,20.50
2018-07-25T03:52:24.465Z,20.40
2018-07-25T03:54:53.422Z,20.50
2018-07-25T03:57:22.458Z,20.50
2018-07-25T03:59:51.425Z,20.50
2018-07-25T04:02:20.428Z,20.60
2018-07-25T04:04:50.607Z,20.70
2018-07-25T04:07:23.384Z,20.60
2018-07-25T04:09:52.380Z,20.60
2018-07-25T04:12:21.350Z,20.60
2018-07-25T04:14:51.322Z,20.60
2018-07-25T04:17:23.084Z,20.70
2018-07-25T04:19:52.062Z,20.90
2018-07-25T04:22:21.046Z,21.00
2018-07-25T04:24:50.119Z,21.10
2018-07-25T04:27:19.046Z,21.10
2018-07-25T04:29:48.029Z,21.30
2018-07-25T04:32:17.017Z,21.40
2018-07-25T04:34:46.041Z,21.50
2018-07-25T04:37:14.986Z,21.60
2018-07-25T04:39:43.944Z,21.70
2018-07-25T04:42:12.939Z,21.80
2018-07-25T04:44:41.890Z,21.90
2018-07-25T04:47:11.099Z,22.00
2018-07-25T04:49:40.042Z,22.10
2018-07-25T04:52:09.020Z,22.20
2018-07-25T04:54:37.981Z,22.30
2018-07-25T04:57:06.964Z,22.30
2018-07-25T04:59:35.938Z,22.40
2018-07-25T05:02:04.955Z,22.40
2018-07-25T05:04:33.934Z,22.40
2018-07-25T05:07:03.096Z,22.40
2018-07-25T05:09:32.062Z,22.50
2018-07-25T05:12:01.371Z,22.50
2018-07-25T05:14:30.341Z,22.40
2018-07-25T05:16:59.345Z,22.40
2018-07-25T05:19:28.335Z,22.50
2018-07-25T05:21:57.377Z,22.50
2018-07-25T05:24:26.397Z,22.50
2018-07-25T05:26:55.412Z,22.60
2018-07-25T05:29:24.778Z,22.60
2018-07-25T05:31:53.789Z,22.60
2018-07-25T05:34:22.787Z,22.70
2018-07-25T05:36:51.787Z,23.00
2018-07-25T05:39:20.821Z,23.20
2018-07-25T05:41:49.810Z,23.50
2018-07-25T05:44:18.795Z,23.60
2018-07-25T05:46:47.837Z,23.70
2018-07-25T05:49:16.864Z,23.90
2018-07-25T05:51:45.857Z,24.20
2018-07-25T05:54:14.867Z,24.30
2018-07-25T05:56:43.858Z,24.30
2018-07-25T05:59:12.855Z,24.40
2018-07-25T06:01:41.869Z,24.50
2018-07-25T06:04:10.892Z,24.70
2018-07-25T06:06:39.888Z,24.70
2018-07-25T06:09:09.803Z,24.70
2018-07-25T06:11:39.230Z,24.70
2018-07-25T06:14:08.530Z,24.80
2018-07-25T06:16:38.074Z,24.90
2018-07-25T06:19:07.108Z,24.90
2018-07-25T06:24:04.971Z,25.00
2018-07-25T06:26:40.880Z,25.10
2018-07-25T06:29:09.875Z,25.20
2018-07-25T06:31:38.861Z,25.50
2018-07-25T06:34:07.873Z,25.60
2018-07-25T07:51:05.212Z,31.10
2018-07-25T07:53:34.163Z,31.50
2018-07-25T07:56:03.143Z,32.00
2018-07-25T07:58:32.188Z,32.20
2018-07-25T08:01:01.170Z,32.50
2018-07-25T08:03:30.124Z,33.80
2018-07-25T08:05:59.114Z,35.00
2018-07-25T08:08:28.062Z,36.50
2018-07-25T08:10:57.042Z,38.40
2018-07-25T08:13:26.060Z,40.00
2018-07-25T08:15:55.020Z,41.00
2018-07-25T08:18:23.990Z,41.20
2018-07-25T08:20:53.016Z,40.20
2018-07-25T08:23:22.824Z,39.30
2018-07-25T08:25:51.874Z,38.80
2018-07-25T08:28:20.924Z,38.30
2018-07-25T08:30:49.899Z,38.10
2018-07-25T08:33:19.057Z,37.60
2018-07-25T08:38:21.875Z,36.70
2018-07-25T08:40:50.860Z,36.50
2018-07-25T08:43:19.877Z,36.10
2018-07-25T08:45:48.890Z,35.20
2018-07-25T08:48:17.839Z,35.10
2018-07-25T08:50:46.831Z,34.70
2018-07-25T08:53:15.804Z,34.20
2018-07-25T08:55:44.815Z,33.70
2018-07-25T09:00:47.313Z,33.30
2018-07-25T09:05:44.930Z,33.30
2018-07-25T09:08:13.957Z,33.70
2018-07-25T09:10:42.942Z,34.00
2018-07-25T09:13:11.908Z,34.20
2018-07-25T09:15:40.910Z,35.00
2018-07-25T09:18:09.895Z,36.00
2018-07-25T09:20:38.923Z,36.10
2018-07-25T09:23:07.866Z,36.00
2018-07-25T09:28:05.706Z,35.40
2018-07-25T09:30:34.766Z,35.00
2018-07-25T09:33:04.491Z,34.80
2018-07-25T09:35:33.500Z,34.60
2018-07-25T09:38:02.449Z,34.60
2018-07-25T09:40:31.443Z,34.70
2018-07-25T09:43:00.449Z,34.70
2018-07-25T09:45:29.453Z,35.10
2018-07-25T09:47:58.430Z,35.60
2018-07-25T09:50:27.497Z,36.10
2018-07-25T09:52:57.058Z,36.40
2018-07-25T09:55:26.078Z,36.30
2018-07-25T10:00:29.378Z,36.80
2018-07-25T10:02:58.361Z,36.90
2018-07-25T10:05:27.420Z,37.50
2018-07-25T10:10:25.116Z,39.00
2018-07-25T10:12:54.681Z,39.40
2018-07-25T10:15:23.977Z,39.30
2018-07-25T10:17:52.997Z,39.00
2018-07-25T10:20:22.048Z,38.60
2018-07-25T10:25:19.845Z,38.50
2018-07-25T10:27:48.973Z,38.90
2018-07-25T10:30:18.014Z,38.90
2018-07-25T10:32:47.103Z,38.70
2018-07-25T10:35:16.110Z,38.70
2018-07-25T10:40:13.905Z,40.20
2018-07-25T10:42:42.913Z,40.60
2018-07-25T13:18:54.444Z,33.40
2018-07-25T13:21:23.450Z,33.50
2018-07-25T13:23:52.495Z,33.40
2018-07-25T13:26:21.515Z,33.40
2018-07-25T13:28:50.612Z,33.40
2018-07-25T13:31:19.584Z,33.40
2018-07-25T13:33:48.668Z,33.50
2018-07-25T13:36:17.680Z,33.50
2018-07-25T13:38:46.723Z,33.50
2018-07-25T13:41:15.792Z,33.50
2018-07-25T13:43:44.816Z,33.30
2018-07-25T13:46:13.954Z,33.30
2018-07-25T13:48:42.953Z,33.20
2018-07-25T13:51:11.964Z,33.20
2018-07-25T13:53:41.009Z,33.20
2018-07-25T13:56:10.112Z,33.20
2018-07-25T13:58:39.157Z,33.20
2018-07-25T14:01:08.171Z,33.30
2018-07-25T14:03:37.183Z,33.30
2018-07-25T14:06:06.732Z,33.30
2018-07-25T14:08:35.762Z,33.20
2018-07-25T14:11:04.765Z,33.30
2018-07-25T14:13:33.901Z,33.40
2018-07-25T14:16:03.036Z,33.40
2018-07-25T14:18:32.139Z,33.40
2018-07-25T14:21:01.159Z,33.50
2018-07-25T14:23:30.255Z,33.40
2018-07-25T14:25:59.304Z,33.50
2018-07-25T14:28:28.372Z,33.40
2018-07-25T14:30:57.400Z,33.40
2018-07-25T14:33:26.440Z,33.40
2018-07-25T14:35:55.497Z,33.40
2018-07-25T14:38:24.532Z,33.40
2018-07-25T14:40:53.556Z,33.50
2018-07-25T14:43:22.661Z,33.50
2018-07-25T14:45:51.645Z,33.50
2018-07-25T14:48:20.727Z,33.50
2018-07-25T14:50:49.786Z,33.50
2018-07-25T14:53:18.860Z,33.40
2018-07-25T14:55:47.902Z,33.30
2018-07-25T14:58:17.524Z,33.20
2018-07-25T15:00:46.559Z,33.40
2018-07-25T15:03:15.596Z,33.50
2018-07-25T15:05:44.621Z,33.40
2018-07-25T15:08:13.632Z,33.40
2018-07-25T15:10:42.694Z,33.40
2018-07-25T15:13:11.777Z,33.40
2018-07-25T15:15:40.736Z,33.30
2018-07-25T15:20:38.449Z,33.20
2018-07-25T15:42:57.500Z,33.40
2018-07-25T15:45:26.559Z,33.50
2018-07-25T15:47:55.544Z,33.40
2018-07-25T15:50:24.602Z,33.30
2018-07-25T15:52:53.651Z,33.20
2018-07-25T15:55:22.648Z,33.20
2018-07-25T15:57:51.661Z,33.30
2018-07-25T16:00:20.712Z,33.20
2018-07-25T16:02:49.721Z,33.20
2018-07-25T16:05:18.734Z,33.10
2018-07-25T16:07:47.731Z,33.00
2018-07-25T16:10:16.763Z,32.90
2018-07-25T16:12:45.767Z,32.80
2018-07-25T16:15:14.807Z,32.80
2018-07-25T16:17:43.829Z,32.80
2018-07-25T16:20:12.875Z,32.70
2018-07-25T16:22:41.983Z,32.60
2018-07-25T16:25:11.016Z,32.70
2018-07-25T16:27:40.031Z,32.70
2018-07-25T16:30:09.050Z,32.60
2018-07-25T16:32:38.111Z,32.50
2018-07-25T16:35:07.123Z,32.60
2018-07-25T16:37:36.153Z,32.60
2018-07-25T16:40:05.694Z,32.70
2018-07-25T16:42:34.716Z,32.80
2018-07-25T16:45:06.340Z,33.00
2018-07-25T16:47:37.235Z,33.10
2018-07-25T16:50:06.812Z,32.90
2018-07-25T16:52:35.829Z,32.90
2018-07-25T16:55:04.868Z,32.80
2018-07-25T16:57:33.879Z,32.80
2018-07-25T17:00:02.882Z,32.80
2018-07-25T17:02:31.966Z,32.80
2018-07-25T17:05:01.044Z,32.80
2018-07-25T17:07:30.075Z,32.70
2018-07-25T17:09:59.107Z,32.70
2018-07-25T17:12:28.203Z,32.70
2018-07-25T17:14:57.179Z,32.70
2018-07-25T17:17:26.178Z,32.60
2018-07-25T17:19:57.323Z,32.60
2018-07-25T17:22:26.641Z,32.40
2018-07-25T17:24:58.392Z,32.40
2018-07-25T17:27:31.528Z,32.40
2018-07-25T17:30:03.825Z,32.40
2018-07-25T17:32:38.764Z,32.40
2018-07-25T17:35:16.132Z,32.40
2018-07-25T17:37:45.135Z,32.40
2018-07-25T17:40:15.226Z,32.40
2018-07-25T17:42:44.253Z,32.40
2018-07-25T17:45:13.228Z,32.40
2018-07-25T17:50:12.046Z,32.30
2018-07-25T17:52:41.151Z,32.10
2018-07-25T17:55:10.158Z,32.10
2018-07-25T17:57:39.142Z,32.10
2018-07-25T18:00:10.329Z,32.00
2018-07-25T18:02:39.421Z,32.00
2018-07-25T18:05:09.243Z,31.90
2018-07-25T18:07:38.325Z,31.90
2018-07-25T18:10:07.302Z,31.90
2018-07-25T18:12:37.931Z,31.90
2018-07-25T18:15:08.834Z,31.90
2018-07-25T18:17:38.246Z,31.90
2018-07-25T18:20:07.438Z,31.80
2018-07-25T18:22:36.897Z,31.70
2018-07-25T18:25:06.365Z,31.60
2018-07-25T18:27:41.727Z,31.60
2018-07-25T18:30:10.853Z,31.50
2018-07-25T18:32:39.839Z,31.50
2018-07-25T18:35:08.826Z,31.50
2018-07-25T18:37:37.847Z,31.40
2018-07-25T18:40:06.958Z,31.30
2018-07-25T18:42:35.981Z,31.20
2018-07-25T18:45:05.358Z,31.10
2018-07-25T18:47:34.364Z,31.00
2018-07-25T18:50:03.367Z,30.80
2018-07-25T18:52:32.387Z,30.70
2018-07-25T18:55:01.423Z,30.40
2018-07-25T18:57:30.436Z,30.30
2018-07-25T18:59:59.472Z,30.20
2018-07-25T19:02:28.624Z,30.10
2018-07-25T19:04:57.641Z,30.10
2018-07-25T19:07:28.551Z,30.00
2018-07-25T19:09:57.583Z,30.00
2018-07-25T19:12:28.168Z,29.90
2018-07-25T21:41:47.004Z,26.10
2018-07-25T21:44:16.660Z,26.20
2018-07-25T21:46:46.563Z,26.10
2018-07-25T21:49:15.567Z,26.00
2018-07-25T21:51:44.534Z,25.90
2018-07-25T21:54:13.552Z,25.90
2018-07-25T21:56:43.846Z,25.90
2018-07-25T21:59:12.855Z,25.80
2018-07-25T22:01:41.855Z,25.70
2018-07-25T22:04:10.848Z,25.40
2018-07-25T22:06:39.857Z,25.20
2018-07-25T22:11:38.672Z,25.10
2018-07-25T22:14:07.699Z,25.20
2018-07-25T22:16:36.716Z,25.30
2018-07-25T22:19:05.852Z,25.20
2018-07-25T22:21:34.908Z,25.20
2018-07-25T22:24:03.970Z,25.20
2018-07-25T22:26:33.004Z,25.20
2018-07-25T22:29:02.057Z,25.10
2018-07-25T22:31:31.584Z,25.10
2018-07-25T22:34:00.621Z,25.10
2018-07-25T22:36:29.648Z,25.00
2018-07-25T22:38:58.719Z,25.00
2018-07-25T22:41:27.896Z,25.10
2018-07-25T22:43:57.383Z,25.10
2018-07-25T22:46:26.677Z,25.10
2018-07-25T22:48:56.648Z,25.00
2018-07-25T22:51:25.691Z,24.80
2018-07-25T22:53:54.743Z,24.60
2018-07-25T22:56:23.785Z,24.60
2018-07-25T22:58:52.835Z,24.70
2018-07-25T23:01:21.920Z,24.70
2018-07-25T23:03:50.912Z,24.70
2018-07-25T23:06:19.925Z,24.70
2018-07-25T23:08:49.790Z,24.60
2018-07-25T23:11:18.875Z,24.60
2018-07-25T23:13:47.984Z,24.60
2018-07-25T23:16:17.860Z,24.40
2018-07-25T23:18:47.280Z,24.10
2018-07-25T23:21:16.320Z,23.80
2018-07-25T23:23:45.299Z,23.90
2018-07-25T23:26:14.346Z,24.10
2018-07-25T23:28:43.588Z,24.20
2018-07-25T23:31:13.110Z,24.10
2018-07-25T23:33:42.544Z,24.00
2018-07-25T23:36:11.635Z,23.70
2018-07-25T23:38:40.631Z,23.60
2018-07-25T23:41:09.677Z,23.60
2018-07-25T23:43:38.690Z,23.70
2018-07-25T23:46:07.744Z,23.50
2018-07-25T23:48:36.781Z,23.60
2018-07-25T23:51:06.662Z,23.60
2018-07-25T23:53:35.659Z,23.40
2018-07-25T23:56:04.777Z,23.40
2018-07-25T23:58:33.807Z,23.20
